createdAt,value
2019-05-03T00:00:38.777Z,54.48
2019-05-03T00:03:06.681Z,55.38
2019-05-03T00:05:34.780Z,55.00
2019-05-03T00:08:02.414Z,55.67
2019-05-03T00:10:31.764Z,54.69
2019-05-03T00:13:01.749Z,55.68
2019-05-03T00:15:32.355Z,54.97
2019-05-03T00:18:02.374Z,54.21
2019-05-03T00:20:28.524Z,54.19
2019-05-03T00:22:54.537Z,53.88
2019-05-03T00:25:22.133Z,54.82
2019-05-03T00:27:48.208Z,54.23
2019-05-03T00:30:14.270Z,53.52
2019-05-03T00:32:40.325Z,53.53
2019-05-03T00:35:17.129Z,53.61
2019-05-03T00:37:45.022Z,53.48
2019-05-03T00:40:15.891Z,53.38
2019-05-03T00:42:42.408Z,53.24
2019-05-03T00:45:08.505Z,53.41
2019-05-03T00:47:34.555Z,53.24
2019-05-03T00:50:02.634Z,54.35
2019-05-03T00:52:31.810Z,54.38
2019-05-03T00:54:58.251Z,53.34
2019-05-03T00:57:24.223Z,54.54
2019-05-03T00:59:52.660Z,53.57
2019-05-03T01:02:18.274Z,53.33
2019-05-03T01:04:44.311Z,54.51
2019-05-03T01:07:11.715Z,53.70
2019-05-03T01:09:38.057Z,54.56
2019-05-03T01:12:04.052Z,53.82
2019-05-03T01:14:31.647Z,54.69
2019-05-03T01:17:00.148Z,53.81
2019-05-03T01:19:26.192Z,53.37
2019-05-03T01:21:52.120Z,53.12
2019-05-03T01:24:18.595Z,53.69
2019-05-03T01:26:44.608Z,53.12
2019-05-03T01:29:12.180Z,53.05
2019-05-03T01:31:38.423Z,53.37
2019-05-03T01:34:04.479Z,53.20
2019-05-03T01:36:32.131Z,53.21
2019-05-03T01:39:02.000Z,53.06
2019-05-03T01:41:28.574Z,53.75
2019-05-03T01:43:54.643Z,52.84
2019-05-03T01:46:22.594Z,52.53
2019-05-03T01:48:59.251Z,52.76
2019-05-03T01:51:44.045Z,52.51
2019-05-03T01:54:12.181Z,52.36
2019-05-03T01:56:37.711Z,52.63
2019-05-03T01:59:03.766Z,53.79
2019-05-03T02:01:37.609Z,52.77
2019-05-03T02:04:12.236Z,52.28
2019-05-03T02:06:38.720Z,52.36
2019-05-03T02:09:05.998Z,52.43
2019-05-03T02:11:32.637Z,52.55
2019-05-03T02:13:58.712Z,53.25
2019-05-03T02:16:25.076Z,52.47
2019-05-03T02:18:51.838Z,52.11
2019-05-03T02:21:17.995Z,52.28
2019-05-03T02:23:44.053Z,52.01
2019-05-03T02:26:11.660Z,52.00
2019-05-03T02:28:37.792Z,51.61
2019-05-03T02:31:03.881Z,51.71
2019-05-03T02:33:29.809Z,51.69
2019-05-03T02:35:55.835Z,51.39
2019-05-03T02:38:23.359Z,51.35
2019-05-03T02:40:49.602Z,51.00
2019-05-03T02:43:17.599Z,50.85
2019-05-03T02:45:48.668Z,50.61
2019-05-03T02:48:25.684Z,51.02
2019-05-03T02:50:51.825Z,50.42
2019-05-03T02:53:17.876Z,50.43
2019-05-03T02:55:45.518Z,51.15
2019-05-03T02:58:11.523Z,50.48
2019-05-03T03:00:39.432Z,50.61
2019-05-03T03:03:05.639Z,50.79
2019-05-03T03:05:31.657Z,50.50
2019-05-03T03:07:57.868Z,50.72
2019-05-03T03:10:26.282Z,50.74
2019-05-03T03:12:51.745Z,50.56
2019-05-03T03:15:17.797Z,50.74
2019-05-03T03:17:45.763Z,50.53
2019-05-03T03:20:11.531Z,50.25
2019-05-03T03:22:39.015Z,50.63
2019-05-03T03:25:06.945Z,50.61
2019-05-03T03:27:32.859Z,50.63
2019-05-03T03:30:31.079Z,50.89
2019-05-03T03:32:58.305Z,51.07
2019-05-03T03:35:29.950Z,50.91
2019-05-03T03:37:55.925Z,51.00
2019-05-03T03:40:22.050Z,51.04
2019-05-03T03:42:48.035Z,50.76
2019-05-03T03:45:16.406Z,50.75
2019-05-03T03:47:41.681Z,50.89
2019-05-03T03:50:07.729Z,50.97
2019-05-03T03:52:36.001Z,50.80
2019-05-03T03:55:01.506Z,50.71
2019-05-03T03:57:27.651Z,51.10
2019-05-03T03:59:55.987Z,50.49
2019-05-03T04:02:21.311Z,50.35
2019-05-03T04:04:47.233Z,49.72
2019-05-03T04:07:15.770Z,50.31
2019-05-03T04:09:41.406Z,49.76
2019-05-03T04:12:07.356Z,50.16
2019-05-03T04:14:36.161Z,49.93
2019-05-03T04:17:05.926Z,49.81
2019-05-03T04:19:36.564Z,49.74
2019-05-03T04:22:05.654Z,49.25
2019-05-03T04:24:30.983Z,50.06
2019-05-03T04:27:18.337Z,49.87
2019-05-03T04:29:35.623Z,49.87
2019-05-03T04:32:02.545Z,49.45
2019-05-03T04:34:28.715Z,48.99
2019-05-03T04:36:55.428Z,49.24
2019-05-03T04:39:21.660Z,49.27
2019-05-03T04:41:47.665Z,49.34
2019-05-03T04:44:15.471Z,49.64
2019-05-03T04:46:41.391Z,49.09
2019-05-03T04:49:07.852Z,49.33
2019-05-03T04:51:35.015Z,49.25
2019-05-03T04:54:18.193Z,49.58
2019-05-03T04:56:46.484Z,48.56
2019-05-03T04:59:12.338Z,49.29
2019-05-03T05:01:38.288Z,49.09
2019-05-03T05:04:06.997Z,49.42
2019-05-03T05:06:35.032Z,49.88
2019-05-03T05:09:00.853Z,49.58
2019-05-03T05:11:26.896Z,49.30
2019-05-03T05:13:52.958Z,49.57
2019-05-03T05:16:19.008Z,49.44
2019-05-03T05:18:46.847Z,49.30
2019-05-03T05:21:15.038Z,49.38
2019-05-03T05:23:48.837Z,48.94
2019-05-03T05:26:19.802Z,49.33
2019-05-03T05:28:47.694Z,49.51
2019-05-03T05:31:15.158Z,49.18
2019-05-03T05:33:41.227Z,49.27
2019-05-03T05:36:07.277Z,49.39
2019-05-03T05:38:34.675Z,49.15
2019-05-03T05:41:00.633Z,49.45
2019-05-03T05:43:26.546Z,49.30
2019-05-03T05:45:52.493Z,49.27
2019-05-03T05:48:24.601Z,49.24
2019-05-03T05:50:50.564Z,49.22
2019-05-03T05:53:16.497Z,48.75
2019-05-03T05:55:44.754Z,48.84
2019-05-03T05:58:30.722Z,48.76
2019-05-03T06:00:58.626Z,48.71
2019-05-03T06:03:25.296Z,49.72
2019-05-03T06:05:51.378Z,49.43
2019-05-03T06:08:22.205Z,48.81
2019-05-03T06:11:05.048Z,48.94
2019-05-03T06:13:41.563Z,49.59
2019-05-03T06:16:15.567Z,50.38
2019-05-03T06:18:54.277Z,50.36
2019-05-03T06:21:25.076Z,49.20
2019-05-03T06:23:56.339Z,49.06
2019-05-03T06:26:36.127Z,48.57
2019-05-03T06:29:04.483Z,49.89
2019-05-03T06:31:32.104Z,50.07
2019-05-03T06:34:00.928Z,49.20
2019-05-03T06:36:26.830Z,49.02
2019-05-03T06:38:54.651Z,48.49
2019-05-03T06:41:20.393Z,48.29
2019-05-03T06:43:48.749Z,47.91
2019-05-03T06:46:16.425Z,48.68
2019-05-03T06:48:41.953Z,50.20
2019-05-03T06:51:10.959Z,50.33
2019-05-03T06:53:35.814Z,50.18
2019-05-03T06:56:02.074Z,50.48
2019-05-03T06:58:33.745Z,50.35
2019-05-03T07:01:04.662Z,50.11
2019-05-03T07:03:32.543Z,50.71
2019-05-03T07:06:33.527Z,50.36
2019-05-03T07:08:52.613Z,50.31
2019-05-03T07:11:18.840Z,49.47
2019-05-03T07:13:45.022Z,50.52
2019-05-03T07:16:11.005Z,50.01
2019-05-03T07:18:37.007Z,50.47
2019-05-03T07:21:04.725Z,50.31
2019-05-03T07:23:31.220Z,50.55
2019-05-03T07:25:59.787Z,51.02
2019-05-03T07:28:25.681Z,50.81
2019-05-03T07:30:51.867Z,50.08
2019-05-03T07:33:19.664Z,49.90
2019-05-03T07:35:45.695Z,50.73
2019-05-03T07:38:11.863Z,50.48
2019-05-03T07:40:37.737Z,49.68
2019-05-03T07:43:04.516Z,51.12
2019-05-03T07:45:30.612Z,50.71
2019-05-03T07:47:56.553Z,50.51
2019-05-03T07:50:22.421Z,49.02
2019-05-03T07:52:48.295Z,50.18
2019-05-03T07:55:14.982Z,50.40
2019-05-03T07:57:45.752Z,50.40
2019-05-03T08:00:14.942Z,50.66
2019-05-03T08:02:41.020Z,50.63
2019-05-03T08:05:06.901Z,50.58
2019-05-03T08:07:35.456Z,50.07
2019-05-03T08:10:00.805Z,50.15
2019-05-03T08:12:26.669Z,50.48
2019-05-03T08:14:52.551Z,50.60
2019-05-03T08:17:18.425Z,50.69
2019-05-03T08:19:44.778Z,50.51
2019-05-03T08:22:11.218Z,50.77
2019-05-03T08:24:37.574Z,50.92
2019-05-03T08:27:05.005Z,50.46
2019-05-03T08:29:31.159Z,50.66
2019-05-03T08:32:15.428Z,50.61
2019-05-03T08:34:48.984Z,50.68
2019-05-03T08:37:16.751Z,50.69
2019-05-03T08:39:44.599Z,50.73
2019-05-03T08:42:15.022Z,50.87
2019-05-03T08:44:41.103Z,50.65
2019-05-03T08:47:07.234Z,50.61
2019-05-03T08:49:34.771Z,50.79
2019-05-03T08:52:00.810Z,50.74
2019-05-03T08:54:26.728Z,50.87
2019-05-03T08:56:52.597Z,50.80
2019-05-03T08:59:28.720Z,50.97
2019-05-03T09:01:46.169Z,50.85
2019-05-03T09:04:12.225Z,50.76
2019-05-03T09:06:38.179Z,50.62
2019-05-03T09:09:06.448Z,50.70
2019-05-03T09:11:34.820Z,50.56
2019-05-03T09:14:04.430Z,50.69
2019-05-03T09:16:30.148Z,50.68
2019-05-03T09:18:56.450Z,50.72
2019-05-03T09:21:22.717Z,50.75
2019-05-03T09:23:48.600Z,50.69
2019-05-03T09:26:15.043Z,50.61
2019-05-03T09:28:41.336Z,50.15
2019-05-03T09:31:07.198Z,50.25
2019-05-03T09:33:33.089Z,50.50
2019-05-03T09:35:59.250Z,50.52
2019-05-03T09:38:25.669Z,50.22
2019-05-03T09:40:51.971Z,50.10
2019-05-03T09:43:17.984Z,50.02
2019-05-03T09:45:45.658Z,50.26
2019-05-03T09:48:11.532Z,50.15
2019-05-03T09:50:37.409Z,50.07
2019-05-03T09:53:05.278Z,50.15
2019-05-03T09:55:32.884Z,50.02
2019-05-03T09:57:58.791Z,50.01
2019-05-03T10:00:24.665Z,50.08
2019-05-03T10:02:50.646Z,50.12
2019-05-03T10:05:16.519Z,50.31
2019-05-03T10:07:42.417Z,50.02
2019-05-03T10:10:08.290Z,49.60
2019-05-03T10:12:34.192Z,50.02
2019-05-03T10:15:00.085Z,50.15
2019-05-03T10:17:35.184Z,50.00
2019-05-03T10:20:01.714Z,50.34
2019-05-03T10:22:28.353Z,50.39
2019-05-03T10:24:54.994Z,50.70
2019-05-03T10:27:20.918Z,50.48
2019-05-03T10:29:46.787Z,50.12
2019-05-03T10:32:26.513Z,50.42
2019-05-03T10:34:57.017Z,50.12
2019-05-03T10:37:35.633Z,48.99
2019-05-03T10:40:01.028Z,49.22
2019-05-03T10:42:26.920Z,48.54
2019-05-03T10:44:52.803Z,49.09
2019-05-03T10:47:18.693Z,49.16
2019-05-03T10:49:45.771Z,49.56
2019-05-03T10:52:11.976Z,49.86
2019-05-03T10:54:38.384Z,49.51
2019-05-03T10:57:06.794Z,49.63
2019-05-03T10:59:32.660Z,49.61
2019-05-03T11:02:17.510Z,49.71
2019-05-03T11:04:46.029Z,49.73
2019-05-03T11:07:11.237Z,49.76
2019-05-03T11:09:48.647Z,49.83
2019-05-03T11:12:05.418Z,49.88
2019-05-03T11:14:31.849Z,49.96
2019-05-03T11:17:00.577Z,50.13
2019-05-03T11:19:26.614Z,49.92
2019-05-03T11:21:54.595Z,49.69
2019-05-03T11:24:23.151Z,49.58
2019-05-03T11:26:49.638Z,49.50
2019-05-03T11:29:15.984Z,49.48
2019-05-03T11:31:46.890Z,49.63
2019-05-03T11:34:18.701Z,49.70
2019-05-03T11:37:04.963Z,49.79
2019-05-03T11:39:30.878Z,49.61
2019-05-03T11:41:58.452Z,49.97
2019-05-03T11:44:39.522Z,49.89
2019-05-03T11:47:05.915Z,49.93
2019-05-03T11:49:31.933Z,49.89
2019-05-03T11:51:58.163Z,49.53
2019-05-03T11:54:24.971Z,49.65
2019-05-03T11:56:51.601Z,49.65
2019-05-03T11:59:17.492Z,50.02
2019-05-03T12:01:45.283Z,50.10
2019-05-03T12:04:11.175Z,50.00
2019-05-03T12:06:37.062Z,49.99
2019-05-03T12:09:05.555Z,50.36
2019-05-03T12:11:33.855Z,50.39
2019-05-03T12:14:12.546Z,50.38
2019-05-03T12:17:11.676Z,50.21
2019-05-03T12:19:16.741Z,50.14
2019-05-03T12:21:37.479Z,49.98
2019-05-03T12:24:06.114Z,50.38
2019-05-03T12:26:41.540Z,50.04
2019-05-03T12:28:59.179Z,50.23
2019-05-03T12:31:36.325Z,50.17
2019-05-03T12:33:54.902Z,50.22
2019-05-03T12:36:20.569Z,49.67
2019-05-03T12:38:46.454Z,50.09
2019-05-03T12:41:12.432Z,49.45
2019-05-03T12:43:38.390Z,49.31
2019-05-03T12:46:05.117Z,49.63
2019-05-03T12:48:31.237Z,50.13
2019-05-03T12:50:57.540Z,50.13
2019-05-03T12:53:24.644Z,49.99
2019-05-03T12:55:50.673Z,50.01
2019-05-03T12:58:16.547Z,49.74
2019-05-03T13:00:47.936Z,49.84
2019-05-03T13:03:15.226Z,50.02
2019-05-03T13:05:41.289Z,50.03
2019-05-03T13:08:26.586Z,49.88
2019-05-03T13:10:52.749Z,50.45
2019-05-03T13:13:18.622Z,50.42
2019-05-03T13:15:44.499Z,50.13
2019-05-03T13:18:10.373Z,50.33
2019-05-03T13:20:36.255Z,50.20
2019-05-03T13:23:02.141Z,50.22
2019-05-03T13:25:30.023Z,50.63
2019-05-03T13:27:55.884Z,50.91
2019-05-03T13:30:21.761Z,50.35
2019-05-03T13:32:47.641Z,50.07
2019-05-03T13:35:15.047Z,50.17
2019-05-03T13:37:41.160Z,49.81
2019-05-03T13:40:07.084Z,49.97
2019-05-03T13:42:34.884Z,50.15
2019-05-03T13:45:00.796Z,49.95
2019-05-03T13:47:26.690Z,49.66
2019-05-03T13:49:52.570Z,49.69
2019-05-03T13:52:18.457Z,49.55
2019-05-03T13:54:45.981Z,49.56
2019-05-03T13:57:12.028Z,49.69
2019-05-03T13:59:37.899Z,49.93
2019-05-03T14:02:12.512Z,49.84
2019-05-03T14:04:31.458Z,49.71
2019-05-03T14:06:57.354Z,49.66
2019-05-03T14:09:25.096Z,49.55
2019-05-03T14:11:50.918Z,49.48
2019-05-03T14:14:16.799Z,49.22
2019-05-03T14:16:42.688Z,48.76
2019-05-03T14:19:10.462Z,49.61
2019-05-03T14:21:38.268Z,49.97
2019-05-03T14:24:11.005Z,50.18
2019-05-03T14:26:37.407Z,49.74
2019-05-03T14:29:05.563Z,49.86
2019-05-03T14:31:30.954Z,50.01
2019-05-03T14:33:56.827Z,50.01
2019-05-03T14:36:24.645Z,50.26
2019-05-03T14:38:50.375Z,50.09
2019-05-03T14:41:16.241Z,49.82
2019-05-03T14:43:42.126Z,49.59
2019-05-03T14:46:08.324Z,49.69
2019-05-03T14:48:35.127Z,49.97
2019-05-03T14:51:01.387Z,50.12
2019-05-03T14:53:28.981Z,50.14
2019-05-03T14:56:08.670Z,50.07
2019-05-03T14:58:51.336Z,50.17
2019-05-03T15:01:36.003Z,48.23
2019-05-03T15:04:02.200Z,48.23
2019-05-03T15:06:30.366Z,49.57
2019-05-03T15:08:56.260Z,49.47
2019-05-03T15:11:22.121Z,49.78
2019-05-03T15:13:48.013Z,49.75
2019-05-03T15:16:14.444Z,49.59
2019-05-03T15:18:40.361Z,49.44
2019-05-03T15:21:06.232Z,49.52
2019-05-03T15:23:32.125Z,47.68
2019-05-03T15:25:59.994Z,49.43
2019-05-03T15:28:25.880Z,49.79
2019-05-03T15:30:51.766Z,50.02
2019-05-03T15:33:17.659Z,49.99
2019-05-03T15:35:46.555Z,50.28
2019-05-03T15:38:11.743Z,50.08
2019-05-03T15:40:37.612Z,50.27
2019-05-03T15:43:08.298Z,50.35
2019-05-03T15:45:38.952Z,50.26
2019-05-03T15:48:07.109Z,50.20
2019-05-03T15:50:33.011Z,50.39
2019-05-03T15:52:59.001Z,50.17
2019-05-03T15:55:24.902Z,50.09
2019-05-03T15:57:50.775Z,50.20
2019-05-03T16:00:17.281Z,49.56
2019-05-03T16:02:43.159Z,50.27
2019-05-03T16:05:09.052Z,50.40
2019-05-03T16:07:35.524Z,50.11
2019-05-03T16:10:01.811Z,50.15
2019-05-03T16:12:28.766Z,48.95
2019-05-03T16:14:55.219Z,49.76
2019-05-03T16:17:21.526Z,49.78
2019-05-03T16:19:47.730Z,50.26
2019-05-03T16:22:14.366Z,50.27
2019-05-03T16:24:40.802Z,49.83
2019-05-03T16:27:26.835Z,49.91
2019-05-03T16:29:52.737Z,49.85
2019-05-03T16:32:18.579Z,50.13
2019-05-03T16:34:44.609Z,50.47
2019-05-03T16:37:10.558Z,50.27
2019-05-03T16:39:36.764Z,49.97
2019-05-03T16:42:04.215Z,49.90
2019-05-03T16:44:30.351Z,49.95
2019-05-03T16:46:56.221Z,49.64
2019-05-03T16:49:22.099Z,48.47
2019-05-03T16:51:48.347Z,50.43
2019-05-03T16:54:14.579Z,50.02
2019-05-03T16:56:44.322Z,50.33
2019-05-03T16:59:10.072Z,50.32
2019-05-03T17:01:35.997Z,50.00
2019-05-03T17:04:20.709Z,50.14
2019-05-03T17:07:05.553Z,49.12
2019-05-03T17:09:45.327Z,50.20
2019-05-03T17:12:15.781Z,49.74
2019-05-03T17:14:41.961Z,48.83
2019-05-03T17:17:07.827Z,49.59
2019-05-03T17:19:35.103Z,49.48
2019-05-03T17:22:01.285Z,50.04
2019-05-03T17:24:27.169Z,48.14
2019-05-03T17:26:54.819Z,49.77
2019-05-03T17:29:21.012Z,49.31
2019-05-03T17:31:46.890Z,49.81
2019-05-03T17:34:14.403Z,49.04
2019-05-03T17:36:40.459Z,47.86
2019-05-03T17:39:08.239Z,48.68
2019-05-03T17:41:36.376Z,47.53
2019-05-03T17:44:04.961Z,47.66
2019-05-03T17:46:30.891Z,48.66
2019-05-03T17:48:56.943Z,47.78
2019-05-03T17:51:42.720Z,47.06
2019-05-03T17:54:25.492Z,49.11
2019-05-03T17:56:55.127Z,47.06
2019-05-03T17:59:22.017Z,47.95
2019-05-03T18:02:06.959Z,47.30
2019-05-03T18:04:40.866Z,47.55
2019-05-03T18:07:11.449Z,47.74
2019-05-03T18:09:39.732Z,47.81
2019-05-03T18:12:06.503Z,48.21
2019-05-03T18:14:34.361Z,47.71
2019-05-03T18:17:00.113Z,47.53
2019-05-03T18:19:25.982Z,46.96
2019-05-03T18:21:56.879Z,46.99
2019-05-03T18:24:24.729Z,46.72
2019-05-03T18:26:50.715Z,46.81
2019-05-03T18:29:16.998Z,46.40
2019-05-03T18:31:44.573Z,46.51
2019-05-03T18:34:19.095Z,46.03
2019-05-03T18:36:38.389Z,46.00
2019-05-03T18:39:06.455Z,46.73
2019-05-03T18:41:32.264Z,46.14
2019-05-03T18:44:16.925Z,46.20
2019-05-03T18:46:47.755Z,47.53
2019-05-03T18:49:14.621Z,47.05
2019-05-03T18:51:40.819Z,47.35
2019-05-03T18:54:07.335Z,47.35
2019-05-03T18:56:34.689Z,47.10
2019-05-03T18:59:00.851Z,46.78
2019-05-03T19:01:27.098Z,48.64
2019-05-03T19:03:55.463Z,47.60
2019-05-03T19:06:21.489Z,47.88
2019-05-03T19:09:05.682Z,47.63
2019-05-03T19:11:39.540Z,47.49
2019-05-03T19:14:15.865Z,46.84
2019-05-03T19:16:59.043Z,47.04
2019-05-03T19:19:29.833Z,46.79
2019-05-03T19:21:56.081Z,46.91
2019-05-03T19:24:22.129Z,47.94
2019-05-03T19:26:48.465Z,47.60
2019-05-03T19:29:14.854Z,47.58
2019-05-03T19:31:40.969Z,47.32
2019-05-03T19:34:07.038Z,48.02
2019-05-03T19:36:34.870Z,47.15
2019-05-03T19:39:00.922Z,47.07
2019-05-03T19:41:27.231Z,47.57
2019-05-03T19:44:01.546Z,48.20
2019-05-03T19:46:30.303Z,47.43
2019-05-03T19:48:56.674Z,47.74
2019-05-03T19:51:22.953Z,48.07
2019-05-03T19:53:51.232Z,47.81
2019-05-03T19:56:17.349Z,47.66
2019-05-03T19:58:46.754Z,47.40
2019-05-03T20:01:26.790Z,47.68
2019-05-03T20:04:09.791Z,49.06
2019-05-03T20:06:40.180Z,47.90
2019-05-03T20:09:10.586Z,48.61
2019-05-03T20:11:36.739Z,47.77
2019-05-03T20:14:04.663Z,48.33
2019-05-03T20:16:30.271Z,47.81
2019-05-03T20:18:56.173Z,47.72
2019-05-03T20:21:22.042Z,48.00
2019-05-03T20:23:48.279Z,47.56
2019-05-03T20:26:14.986Z,47.78
2019-05-03T20:28:41.162Z,47.69
2019-05-03T20:31:07.049Z,47.54
2019-05-03T20:33:35.159Z,47.94
2019-05-03T20:36:00.623Z,48.84
2019-05-03T20:38:26.517Z,48.15
2019-05-03T20:40:55.358Z,48.18
2019-05-03T20:43:25.748Z,48.00
2019-05-03T20:45:54.775Z,48.26
2019-05-03T20:48:21.752Z,47.46
2019-05-03T20:50:48.013Z,47.90
2019-05-03T20:53:13.894Z,47.86
2019-05-03T20:55:39.772Z,47.91
2019-05-03T20:58:08.242Z,47.71
2019-05-03T21:00:34.559Z,47.98
2019-05-03T21:03:00.618Z,47.83
2019-05-03T21:05:30.952Z,47.65
2019-05-03T21:07:55.008Z,47.73
2019-05-03T21:10:20.947Z,47.81
2019-05-03T21:12:46.836Z,47.95
2019-05-03T21:15:20.570Z,47.99
2019-05-03T21:18:05.404Z,48.21
2019-05-03T21:20:38.939Z,48.07
2019-05-03T21:23:06.778Z,48.33
2019-05-03T21:25:36.518Z,48.25
2019-05-03T21:28:02.225Z,47.94
2019-05-03T21:30:32.789Z,48.10
2019-05-03T21:33:01.566Z,48.09
2019-05-03T21:35:40.959Z,47.68
2019-05-03T21:37:55.551Z,47.27
2019-05-03T21:40:21.422Z,46.84
2019-05-03T21:42:47.323Z,46.62
2019-05-03T21:45:15.109Z,46.58
2019-05-03T21:47:49.206Z,46.42
2019-05-03T21:50:16.981Z,46.40
2019-05-03T21:52:42.870Z,46.11
2019-05-03T21:55:08.933Z,45.68
2019-05-03T21:57:35.373Z,45.64
2019-05-03T22:00:02.140Z,46.08
2019-05-03T22:02:30.251Z,46.04
2019-05-03T22:04:56.297Z,45.99
2019-05-03T22:07:27.313Z,46.19
2019-05-03T22:09:54.483Z,45.83
2019-05-03T22:12:20.595Z,46.53
2019-05-03T22:14:48.500Z,45.92
2019-05-03T22:17:34.545Z,46.20
2019-05-03T22:20:02.519Z,46.35
2019-05-03T22:22:40.051Z,46.33
2019-05-03T22:25:07.956Z,46.28
2019-05-03T22:27:39.025Z,46.23
2019-05-03T22:30:05.400Z,46.40
2019-05-03T22:32:31.763Z,46.50
2019-05-03T22:34:57.875Z,46.37
2019-05-03T22:37:25.202Z,46.59
2019-05-03T22:39:51.199Z,46.35
2019-05-03T22:42:17.201Z,46.46
2019-05-03T22:44:44.769Z,46.13
2019-05-03T22:47:10.949Z,46.97
2019-05-03T22:49:37.261Z,46.86
2019-05-03T22:52:04.906Z,46.99
2019-05-03T22:54:31.175Z,46.96
2019-05-03T22:56:58.146Z,46.99
2019-05-03T22:59:25.205Z,47.17
2019-05-03T23:01:51.677Z,47.14
2019-05-03T23:04:17.634Z,47.24
2019-05-03T23:06:46.625Z,47.09
2019-05-03T23:09:11.179Z,47.26
2019-05-03T23:11:37.128Z,47.48
2019-05-03T23:14:04.887Z,47.28
2019-05-03T23:16:31.698Z,47.25
2019-05-03T23:18:57.987Z,47.14
2019-05-03T23:21:25.940Z,47.09
2019-05-03T23:23:54.889Z,47.27
2019-05-03T23:26:20.919Z,47.50
2019-05-03T23:28:46.838Z,47.40
2019-05-03T23:31:14.564Z,47.60
2019-05-03T23:33:40.456Z,47.66
2019-05-03T23:36:06.486Z,47.55
2019-05-03T23:38:32.446Z,47.82
2019-05-03T23:41:01.273Z,47.75
2019-05-03T23:43:27.318Z,47.71
2019-05-03T23:45:54.556Z,48.01
2019-05-03T23:48:20.650Z,47.81
2019-05-03T23:50:46.700Z,48.02
2019-05-03T23:53:12.613Z,47.88
2019-05-03T23:55:40.402Z,48.03
2019-05-03T23:58:06.394Z,48.14
